createdAt,value
2017-12-03T02:47:36.406Z,5.48
2017-12-03T03:47:34.676Z,5.87
2017-12-03T04:17:35.040Z,6.00
2017-12-03T05:17:34.845Z,6.21
2017-12-03T05:32:34.736Z,6.21
2017-12-03T05:47:35.144Z,6.19
2017-12-03T06:17:35.916Z,6.93
2017-12-03T06:32:35.195Z,9.49
2017-12-03T06:47:34.668Z,8.69
2017-12-03T07:02:35.281Z,7.95
2017-12-03T07:17:38.200Z,7.49
2017-12-03T07:32:36.481Z,7.07
2017-12-03T07:47:34.559Z,6.68
2017-12-03T08:02:34.369Z,6.41
2017-12-03T08:17:34.973Z,6.39
2017-12-03T08:32:34.924Z,6.56
2017-12-03T08:47:35.327Z,6.79
2017-12-03T09:02:34.804Z,7.30
2017-12-03T09:17:34.643Z,7.62
2017-12-03T09:32:34.699Z,7.99
2017-12-03T09:47:35.349Z,8.30
2017-12-03T10:02:35.077Z,8.25
2017-12-03T10:17:34.729Z,8.15
2017-12-03T10:32:40.843Z,8.33
2017-12-03T10:47:37.137Z,8.50
2017-12-03T11:02:35.241Z,8.76
2017-12-03T11:17:35.141Z,9.12
2017-12-03T11:32:34.548Z,9.41
2017-12-03T11:47:34.475Z,9.56
2017-12-03T12:02:36.460Z,9.08
2017-12-03T12:17:34.868Z,8.68
2017-12-03T12:32:39.776Z,9.31
2017-12-03T12:47:35.294Z,9.50
2017-12-03T13:02:34.725Z,9.23
2017-12-03T13:17:35.117Z,8.84
2017-12-03T13:32:35.012Z,8.78
2017-12-03T13:47:36.987Z,8.76
2017-12-03T14:02:34.934Z,8.71
2017-12-03T14:17:36.701Z,8.69
2017-12-03T14:32:35.356Z,8.54
2017-12-03T14:47:35.254Z,8.41
2017-12-03T15:02:34.964Z,8.29
2017-12-03T15:17:34.564Z,8.15
2017-12-03T15:32:35.084Z,8.01
2017-12-03T15:47:34.528Z,7.83
2017-12-03T16:02:34.427Z,7.68
2017-12-03T16:17:35.365Z,7.50
2017-12-03T16:32:34.864Z,7.40
2017-12-03T16:47:34.806Z,7.45
2017-12-03T17:02:36.756Z,7.56
2017-12-03T17:17:33.458Z,7.62
2017-12-03T17:32:34.838Z,7.61
2017-12-03T17:47:38.074Z,7.50
2017-12-03T18:02:35.855Z,7.40
2017-12-03T18:17:37.299Z,7.38
2017-12-03T18:32:37.261Z,7.40
2017-12-03T18:47:37.734Z,7.46
2017-12-03T19:02:35.167Z,7.39
2017-12-03T19:17:37.067Z,7.31
2017-12-03T19:32:34.290Z,7.14
2017-12-03T19:47:34.431Z,7.08
2017-12-03T20:02:34.406Z,6.96
2017-12-03T20:17:37.864Z,6.85
2017-12-03T20:32:36.770Z,6.46
2017-12-03T20:47:34.727Z,6.47
2017-12-03T21:02:34.595Z,6.50
2017-12-03T21:17:36.643Z,6.48
2017-12-03T21:32:34.967Z,6.38
2017-12-03T21:47:34.907Z,6.37
2017-12-03T22:32:37.175Z,6.26
2017-12-03T22:47:35.137Z,6.19
